Terminal Aerodrome Forecast
Issued by NWS Charleston, WV

Current Version | Previous Version | Text Only | Print | Product List | Glossary Off
Versions: 1 2 3 4 5 6 7 8 9 10 11 12 13 14 15 16 17 18 19 20 21 22 23 24 25 26 27

000
FTUS41 KRLX 190500 RRA
TAFPKB
TAF
KPKB 190545Z 1906/2006 00000KT 6SM BR SCT040
      TEMPO 1906/1908 3SM BR SCT002
     FM190800 00000KT 2SM BR SCT015
      TEMPO 1909/1913 1/2SM FG BKN002
     FM191300 00000KT 4SM BR SCT035
     FM191500 00000KT P6SM SCT140
     FM191700 VRB03KT P6SM BKN035
     FM192100 VRB03KT P6SM VCTS BKN035CB
     FM200300 00000KT 5SM SHRA BR VCTS BKN035CB=

USA.gov is the U.S. government's official web portal to all federal, state and local government web resources and services.